sensor_id;sensor_type;location;lat;lon;timestamp;temperature;humidity
20045;DHT22;10183;47.808;9.476;2024-01-07T00:02:33;1.30;99.90
20045;DHT22;10183;47.808;9.476;2024-01-07T00:05:19;1.30;99.90
20045;DHT22;10183;47.808;9.476;2024-01-07T00:08:05;1.40;99.90
20045;DHT22;10183;47.808;9.476;2024-01-07T00:10:51;1.30;99.90
20045;DHT22;10183;47.808;9.476;2024-01-07T00:13:37;1.30;99.90
20045;DHT22;10183;47.808;9.476;2024-01-07T00:16:23;1.40;99.90
20045;DHT22;10183;47.808;9.476;2024-01-07T00:19:09;1.30;99.90
20045;DHT22;10183;47.808;9.476;2024-01-07T00:21:55;1.30;99.90
20045;DHT22;10183;47.808;9.476;2024-01-07T00:24:41;1.30;99.90
20045;DHT22;10183;47.808;9.476;2024-01-07T00:27:27;1.30;99.90
20045;DHT22;10183;47.808;9.476;2024-01-07T00:30:13;1.30;99.90
20045;DHT22;10183;47.808;9.476;2024-01-07T00:32:59;1.20;99.90
20045;DHT22;10183;47.808;9.476;2024-01-07T00:35:45;1.30;99.90
20045;DHT22;10183;47.808;9.476;2024-01-07T00:38:31;1.30;99.90
20045;DHT22;10183;47.808;9.476;2024-01-07T00:41:17;1.30;99.90
20045;DHT22;10183;47.808;9.476;2024-01-07T00:44:03;1.20;99.90
20045;DHT22;10183;47.808;9.476;2024-01-07T00:46:49;1.20;99.90
20045;DHT22;10183;47.808;9.476;2024-01-07T00:49:35;1.20;99.90
20045;DHT22;10183;47.808;9.476;2024-01-07T00:52:21;1.20;99.90
20045;DHT22;10183;47.808;9.476;2024-01-07T00:55:08;1.20;99.90
20045;DHT22;10183;47.808;9.476;2024-01-07T00:57:54;1.10;99.90
20045;DHT22;10183;47.808;9.476;2024-01-07T01:00:40;1.20;99.90
20045;DHT22;10183;47.808;9.476;2024-01-07T01:03:26;1.20;99.90
20045;DHT22;10183;47.808;9.476;2024-01-07T01:06:12;1.20;99.90
20045;DHT22;10183;47.808;9.476;2024-01-07T01:08:58;1.20;99.90
20045;DHT22;10183;47.808;9.476;2024-01-07T01:11:44;1.20;99.90
20045;DHT22;10183;47.808;9.476;2024-01-07T01:14:30;1.20;99.90
20045;DHT22;10183;47.808;9.476;2024-01-07T01:17:16;1.20;99.90
20045;DHT22;10183;47.808;9.476;2024-01-07T01:20:02;1.20;99.90
20045;DHT22;10183;47.808;9.476;2024-01-07T01:22:48;1.20;99.90
20045;DHT22;10183;47.808;9.476;2024-01-07T01:25:34;1.30;99.90
20045;DHT22;10183;47.808;9.476;2024-01-07T01:28:21;1.30;99.90
20045;DHT22;10183;47.808;9.476;2024-01-07T01:31:07;1.30;99.90
20045;DHT22;10183;47.808;9.476;2024-01-07T01:33:53;1.20;99.90
20045;DHT22;10183;47.808;9.476;2024-01-07T01:36:39;1.20;99.90
20045;DHT22;10183;47.808;9.476;2024-01-07T01:39:25;1.20;99.90
20045;DHT22;10183;47.808;9.476;2024-01-07T01:42:11;1.20;99.90
20045;DHT22;10183;47.808;9.476;2024-01-07T01:44:57;1.20;99.90
20045;DHT22;10183;47.808;9.476;2024-01-07T01:47:47;1.20;99.90
20045;DHT22;10183;47.808;9.476;2024-01-07T01:50:33;1.30;99.90
20045;DHT22;10183;47.808;9.476;2024-01-07T01:53:19;1.30;99.90
20045;DHT22;10183;47.808;9.476;2024-01-07T01:56:06;1.30;99.90
20045;DHT22;10183;47.808;9.476;2024-01-07T01:58:52;1.30;99.90
20045;DHT22;10183;47.808;9.476;2024-01-07T02:01:39;1.30;99.90
20045;DHT22;10183;47.808;9.476;2024-01-07T02:04:25;1.30;99.90
20045;DHT22;10183;47.808;9.476;2024-01-07T02:07:11;1.30;99.90
20045;DHT22;10183;47.808;9.476;2024-01-07T02:09:57;1.30;99.90
20045;DHT22;10183;47.808;9.476;2024-01-07T02:12:43;1.20;99.90
20045;DHT22;10183;47.808;9.476;2024-01-07T02:15:30;1.30;99.90
20045;DHT22;10183;47.808;9.476;2024-01-07T02:18:16;1.30;99.90
20045;DHT22;10183;47.808;9.476;2024-01-07T02:21:02;1.20;99.90
20045;DHT22;10183;47.808;9.476;2024-01-07T02:23:48;1.20;99.90
20045;DHT22;10183;47.808;9.476;2024-01-07T02:26:34;1.20;99.90
20045;DHT22;10183;47.808;9.476;2024-01-07T02:29:20;1.30;99.90
20045;DHT22;10183;47.808;9.476;2024-01-07T02:32:06;1.30;99.90
20045;DHT22;10183;47.808;9.476;2024-01-07T02:34:52;1.30;99.90
20045;DHT22;10183;47.808;9.476;2024-01-07T02:37:38;1.30;99.90
20045;DHT22;10183;47.808;9.476;2024-01-07T02:40:24;1.20;99.90
20045;DHT22;10183;47.808;9.476;2024-01-07T02:43:10;1.20;99.90
20045;DHT22;10183;47.808;9.476;2024-01-07T02:45:56;1.20;99.90
20045;DHT22;10183;47.808;9.476;2024-01-07T02:48:42;1.30;99.90
20045;DHT22;10183;47.808;9.476;2024-01-07T02:51:28;1.20;99.90
20045;DHT22;10183;47.808;9.476;2024-01-07T02:54:14;1.30;99.90
20045;DHT22;10183;47.808;9.476;2024-01-07T02:57:00;1.40;99.90
20045;DHT22;10183;47.808;9.476;2024-01-07T02:59:46;1.40;99.90
20045;DHT22;10183;47.808;9.476;2024-01-07T03:02:32;1.30;99.90
20045;DHT22;10183;47.808;9.476;2024-01-07T03:05:18;1.40;99.90
20045;DHT22;10183;47.808;9.476;2024-01-07T03:08:04;1.30;99.90
20045;DHT22;10183;47.808;9.476;2024-01-07T03:10:50;1.30;99.90
20045;DHT22;10183;47.808;9.476;2024-01-07T03:13:36;1.30;99.90
20045;DHT22;10183;47.808;9.476;2024-01-07T03:16:23;1.30;99.90
20045;DHT22;10183;47.808;9.476;2024-01-07T03:19:09;1.30;99.90
20045;DHT22;10183;47.808;9.476;2024-01-07T03:21:55;1.30;99.90
20045;DHT22;10183;47.808;9.476;2024-01-07T03:24:42;1.30;99.90
20045;DHT22;10183;47.808;9.476;2024-01-07T03:27:28;1.30;99.90
20045;DHT22;10183;47.808;9.476;2024-01-07T03:30:14;1.30;99.90
20045;DHT22;10183;47.808;9.476;2024-01-07T03:33:00;1.40;99.90
20045;DHT22;10183;47.808;9.476;2024-01-07T03:35:46;1.30;99.90
20045;DHT22;10183;47.808;9.476;2024-01-07T03:38:32;1.40;99.90
20045;DHT22;10183;47.808;9.476;2024-01-07T03:41:19;1.40;99.90
20045;DHT22;10183;47.808;9.476;2024-01-07T03:44:05;1.40;99.90
20045;DHT22;10183;47.808;9.476;2024-01-07T03:46:51;1.40;99.90
20045;DHT22;10183;47.808;9.476;2024-01-07T03:49:37;1.50;99.90
20045;DHT22;10183;47.808;9.476;2024-01-07T03:52:23;1.50;99.90
20045;DHT22;10183;47.808;9.476;2024-01-07T03:55:09;1.50;99.90
20045;DHT22;10183;47.808;9.476;2024-01-07T03:57:56;1.50;99.90
20045;DHT22;10183;47.808;9.476;2024-01-07T04:00:41;1.50;99.90
20045;DHT22;10183;47.808;9.476;2024-01-07T04:03:27;1.50;99.90
20045;DHT22;10183;47.808;9.476;2024-01-07T04:06:13;1.40;99.90
20045;DHT22;10183;47.808;9.476;2024-01-07T04:08:59;1.40;99.90
20045;DHT22;10183;47.808;9.476;2024-01-07T04:11:45;1.40;99.90
20045;DHT22;10183;47.808;9.476;2024-01-07T04:14:31;1.40;99.90
20045;DHT22;10183;47.808;9.476;2024-01-07T04:17:19;1.40;99.90
20045;DHT22;10183;47.808;9.476;2024-01-07T04:20:11;1.40;99.90
20045;DHT22;10183;47.808;9.476;2024-01-07T04:22:58;1.50;99.90
20045;DHT22;10183;47.808;9.476;2024-01-07T04:25:44;1.50;99.90
20045;DHT22;10183;47.808;9.476;2024-01-07T04:28:30;1.60;99.90
20045;DHT22;10183;47.808;9.476;2024-01-07T04:31:16;1.60;99.90
20045;DHT22;10183;47.808;9.476;2024-01-07T04:34:02;1.60;99.90
20045;DHT22;10183;47.808;9.476;2024-01-07T04:36:48;1.60;99.90
20045;DHT22;10183;47.808;9.476;2024-01-07T04:39:34;1.60;99.90
20045;DHT22;10183;47.808;9.476;2024-01-07T04:42:20;1.60;99.90
20045;DHT22;10183;47.808;9.476;2024-01-07T04:45:07;1.50;99.90
20045;DHT22;10183;47.808;9.476;2024-01-07T04:47:53;1.50;99.90
20045;DHT22;10183;47.808;9.476;2024-01-07T04:50:42;1.50;99.90
20045;DHT22;10183;47.808;9.476;2024-01-07T04:53:28;1.60;99.90
20045;DHT22;10183;47.808;9.476;2024-01-07T04:56:14;1.50;99.90
20045;DHT22;10183;47.808;9.476;2024-01-07T04:59:00;1.60;99.90
20045;DHT22;10183;47.808;9.476;2024-01-07T05:01:46;1.60;99.90
20045;DHT22;10183;47.808;9.476;2024-01-07T05:04:33;1.60;99.90
20045;DHT22;10183;47.808;9.476;2024-01-07T05:07:18;1.60;99.90
20045;DHT22;10183;47.808;9.476;2024-01-07T05:10:05;1.60;99.90
20045;DHT22;10183;47.808;9.476;2024-01-07T05:12:51;1.60;99.90
20045;DHT22;10183;47.808;9.476;2024-01-07T05:15:37;1.60;99.90
20045;DHT22;10183;47.808;9.476;2024-01-07T05:18:23;1.60;99.90
20045;DHT22;10183;47.808;9.476;2024-01-07T05:21:09;1.60;99.90
20045;DHT22;10183;47.808;9.476;2024-01-07T05:23:55;1.60;99.90
20045;DHT22;10183;47.808;9.476;2024-01-07T05:26:43;1.60;99.90
20045;DHT22;10183;47.808;9.476;2024-01-07T05:29:29;1.60;99.90
20045;DHT22;10183;47.808;9.476;2024-01-07T05:32:15;1.60;99.90
20045;DHT22;10183;47.808;9.476;2024-01-07T05:35:01;1.60;99.90
20045;DHT22;10183;47.808;9.476;2024-01-07T05:37:47;1.60;99.90
20045;DHT22;10183;47.808;9.476;2024-01-07T05:40:33;1.50;99.90
20045;DHT22;10183;47.808;9.476;2024-01-07T05:43:19;1.50;99.90
20045;DHT22;10183;47.808;9.476;2024-01-07T05:46:04;1.60;99.90
20045;DHT22;10183;47.808;9.476;2024-01-07T05:48:50;1.50;99.90
20045;DHT22;10183;47.808;9.476;2024-01-07T05:51:40;1.60;99.90
20045;DHT22;10183;47.808;9.476;2024-01-07T05:54:26;1.50;99.90
20045;DHT22;10183;47.808;9.476;2024-01-07T05:57:12;1.50;99.90
20045;DHT22;10183;47.808;9.476;2024-01-07T05:59:58;1.50;99.90
20045;DHT22;10183;47.808;9.476;2024-01-07T06:02:44;1.50;99.90
20045;DHT22;10183;47.808;9.476;2024-01-07T06:05:30;1.50;99.90
20045;DHT22;10183;47.808;9.476;2024-01-07T06:08:16;1.50;99.90
20045;DHT22;10183;47.808;9.476;2024-01-07T06:11:02;1.50;99.90
20045;DHT22;10183;47.808;9.476;2024-01-07T06:13:48;1.50;99.90
20045;DHT22;10183;47.808;9.476;2024-01-07T06:16:34;1.50;99.90
20045;DHT22;10183;47.808;9.476;2024-01-07T06:19:20;1.50;99.90
20045;DHT22;10183;47.808;9.476;2024-01-07T06:22:06;1.50;99.90
20045;DHT22;10183;47.808;9.476;2024-01-07T06:24:52;1.50;99.90
20045;DHT22;10183;47.808;9.476;2024-01-07T06:27:38;1.50;99.90
20045;DHT22;10183;47.808;9.476;2024-01-07T06:30:24;1.50;99.90
20045;DHT22;10183;47.808;9.476;2024-01-07T06:33:10;1.50;99.90
20045;DHT22;10183;47.808;9.476;2024-01-07T06:35:58;1.50;99.90
20045;DHT22;10183;47.808;9.476;2024-01-07T06:38:45;1.50;99.90
20045;DHT22;10183;47.808;9.476;2024-01-07T06:41:31;1.40;99.90
20045;DHT22;10183;47.808;9.476;2024-01-07T06:44:17;1.40;99.90
20045;DHT22;10183;47.808;9.476;2024-01-07T06:47:03;1.50;99.90
20045;DHT22;10183;47.808;9.476;2024-01-07T06:49:49;1.50;99.90
20045;DHT22;10183;47.808;9.476;2024-01-07T06:52:35;1.50;99.90
20045;DHT22;10183;47.808;9.476;2024-01-07T06:55:21;1.50;99.90
20045;DHT22;10183;47.808;9.476;2024-01-07T06:58:08;1.50;99.90
20045;DHT22;10183;47.808;9.476;2024-01-07T07:00:54;1.50;99.90
20045;DHT22;10183;47.808;9.476;2024-01-07T07:03:40;1.50;99.90
20045;DHT22;10183;47.808;9.476;2024-01-07T07:06:27;1.50;99.90
20045;DHT22;10183;47.808;9.476;2024-01-07T07:09:12;1.50;99.90
20045;DHT22;10183;47.808;9.476;2024-01-07T07:11:58;1.60;99.90
20045;DHT22;10183;47.808;9.476;2024-01-07T07:14:45;1.60;99.90
20045;DHT22;10183;47.808;9.476;2024-01-07T07:17:31;1.60;99.90
20045;DHT22;10183;47.808;9.476;2024-01-07T07:20:16;1.60;99.90
20045;DHT22;10183;47.808;9.476;2024-01-07T07:23:03;1.60;99.90
20045;DHT22;10183;47.808;9.476;2024-01-07T07:25:49;1.60;99.90
20045;DHT22;10183;47.808;9.476;2024-01-07T07:28:35;1.60;99.90
20045;DHT22;10183;47.808;9.476;2024-01-07T07:31:21;1.70;99.90
20045;DHT22;10183;47.808;9.476;2024-01-07T07:34:08;1.70;99.90
20045;DHT22;10183;47.808;9.476;2024-01-07T07:36:54;1.60;99.90
20045;DHT22;10183;47.808;9.476;2024-01-07T07:39:41;1.70;99.90
20045;DHT22;10183;47.808;9.476;2024-01-07T07:42:27;1.60;99.90
20045;DHT22;10183;47.808;9.476;2024-01-07T07:45:13;1.70;99.90
20045;DHT22;10183;47.808;9.476;2024-01-07T07:47:59;1.60;99.90
20045;DHT22;10183;47.808;9.476;2024-01-07T07:50:45;1.70;99.90
20045;DHT22;10183;47.808;9.476;2024-01-07T07:53:31;1.70;99.90
20045;DHT22;10183;47.808;9.476;2024-01-07T07:56:17;1.70;99.90
20045;DHT22;10183;47.808;9.476;2024-01-07T07:59:03;1.70;99.90
20045;DHT22;10183;47.808;9.476;2024-01-07T08:01:49;1.80;99.90
20045;DHT22;10183;47.808;9.476;2024-01-07T08:04:35;1.80;99.90
20045;DHT22;10183;47.808;9.476;2024-01-07T08:07:21;1.80;99.90
20045;DHT22;10183;47.808;9.476;2024-01-07T08:10:07;1.80;99.90
20045;DHT22;10183;47.808;9.476;2024-01-07T08:12:54;1.90;99.90
20045;DHT22;10183;47.808;9.476;2024-01-07T08:15:40;1.90;99.90
20045;DHT22;10183;47.808;9.476;2024-01-07T08:18:26;1.90;99.90
20045;DHT22;10183;47.808;9.476;2024-01-07T08:21:12;2.00;99.90
20045;DHT22;10183;47.808;9.476;2024-01-07T08:23:58;1.90;99.90
20045;DHT22;10183;47.808;9.476;2024-01-07T08:26:44;2.00;99.90
20045;DHT22;10183;47.808;9.476;2024-01-07T08:29:30;2.00;99.90
20045;DHT22;10183;47.808;9.476;2024-01-07T08:32:16;1.90;99.90
20045;DHT22;10183;47.808;9.476;2024-01-07T08:35:02;2.00;99.90
20045;DHT22;10183;47.808;9.476;2024-01-07T08:37:48;2.00;99.90
20045;DHT22;10183;47.808;9.476;2024-01-07T08:40:35;2.00;99.90
20045;DHT22;10183;47.808;9.476;2024-01-07T08:43:21;2.00;99.90
20045;DHT22;10183;47.808;9.476;2024-01-07T08:46:07;2.00;99.90
20045;DHT22;10183;47.808;9.476;2024-01-07T08:48:53;2.00;99.90
20045;DHT22;10183;47.808;9.476;2024-01-07T08:51:39;2.10;99.90
20045;DHT22;10183;47.808;9.476;2024-01-07T08:54:25;2.10;99.90
20045;DHT22;10183;47.808;9.476;2024-01-07T08:57:11;2.20;99.90
20045;DHT22;10183;47.808;9.476;2024-01-07T08:59:57;2.10;99.90
20045;DHT22;10183;47.808;9.476;2024-01-07T09:02:43;2.10;99.90
20045;DHT22;10183;47.808;9.476;2024-01-07T09:05:29;2.10;99.90
20045;DHT22;10183;47.808;9.476;2024-01-07T09:08:15;2.10;99.90
20045;DHT22;10183;47.808;9.476;2024-01-07T09:11:03;2.10;99.90
20045;DHT22;10183;47.808;9.476;2024-01-07T09:13:50;2.10;99.90
20045;DHT22;10183;47.808;9.476;2024-01-07T09:16:36;2.10;99.90
20045;DHT22;10183;47.808;9.476;2024-01-07T09:19:22;2.10;99.90
20045;DHT22;10183;47.808;9.476;2024-01-07T09:22:07;2.00;99.90
20045;DHT22;10183;47.808;9.476;2024-01-07T09:24:53;2.10;99.90
20045;DHT22;10183;47.808;9.476;2024-01-07T09:27:39;2.00;99.90
20045;DHT22;10183;47.808;9.476;2024-01-07T09:30:25;2.00;99.90
20045;DHT22;10183;47.808;9.476;2024-01-07T09:33:11;2.00;99.90
20045;DHT22;10183;47.808;9.476;2024-01-07T09:35:58;2.00;99.90
20045;DHT22;10183;47.808;9.476;2024-01-07T09:38:43;2.00;99.90
20045;DHT22;10183;47.808;9.476;2024-01-07T09:41:30;2.00;99.90
20045;DHT22;10183;47.808;9.476;2024-01-07T09:44:16;2.10;99.90
20045;DHT22;10183;47.808;9.476;2024-01-07T09:47:05;2.20;99.90
20045;DHT22;10183;47.808;9.476;2024-01-07T09:49:52;2.10;99.90
20045;DHT22;10183;47.808;9.476;2024-01-07T09:52:38;2.10;99.90
20045;DHT22;10183;47.808;9.476;2024-01-07T09:55:45;2.00;99.90
20045;DHT22;10183;47.808;9.476;2024-01-07T09:58:33;2.00;99.90
20045;DHT22;10183;47.808;9.476;2024-01-07T10:01:19;1.90;99.90
20045;DHT22;10183;47.808;9.476;2024-01-07T10:04:05;1.90;99.90
20045;DHT22;10183;47.808;9.476;2024-01-07T10:06:52;1.80;99.90
20045;DHT22;10183;47.808;9.476;2024-01-07T10:09:41;1.80;99.90
20045;DHT22;10183;47.808;9.476;2024-01-07T10:12:30;1.80;99.90
20045;DHT22;10183;47.808;9.476;2024-01-07T10:15:16;1.90;99.90
20045;DHT22;10183;47.808;9.476;2024-01-07T10:18:07;2.00;99.90
20045;DHT22;10183;47.808;9.476;2024-01-07T10:20:53;2.00;99.90
20045;DHT22;10183;47.808;9.476;2024-01-07T10:23:40;2.00;99.90
20045;DHT22;10183;47.808;9.476;2024-01-07T10:26:27;2.00;99.90
20045;DHT22;10183;47.808;9.476;2024-01-07T10:29:12;2.10;99.90
20045;DHT22;10183;47.808;9.476;2024-01-07T10:32:02;2.00;99.90
20045;DHT22;10183;47.808;9.476;2024-01-07T10:34:53;1.90;99.90
20045;DHT22;10183;47.808;9.476;2024-01-07T10:37:41;2.00;99.90
20045;DHT22;10183;47.808;9.476;2024-01-07T10:40:31;2.00;99.90
20045;DHT22;10183;47.808;9.476;2024-01-07T10:43:19;2.00;99.90
20045;DHT22;10183;47.808;9.476;2024-01-07T10:46:06;2.00;99.90
20045;DHT22;10183;47.808;9.476;2024-01-07T10:48:58;2.10;99.90
20045;DHT22;10183;47.808;9.476;2024-01-07T10:51:46;2.10;99.90
20045;DHT22;10183;47.808;9.476;2024-01-07T10:54:34;2.10;99.90
20045;DHT22;10183;47.808;9.476;2024-01-07T10:57:45;2.10;99.90
20045;DHT22;10183;47.808;9.476;2024-01-07T11:00:33;2.10;99.90
20045;DHT22;10183;47.808;9.476;2024-01-07T11:12:55;1.90;99.90
20045;DHT22;10183;47.808;9.476;2024-01-07T11:18:47;1.80;99.90
20045;DHT22;10183;47.808;9.476;2024-01-07T11:21:36;1.70;99.90
20045;DHT22;10183;47.808;9.476;2024-01-07T11:24:38;1.70;99.90
20045;DHT22;10183;47.808;9.476;2024-01-07T11:27:26;1.80;99.90
20045;DHT22;10183;47.808;9.476;2024-01-07T11:30:19;1.70;99.90
20045;DHT22;10183;47.808;9.476;2024-01-07T11:33:05;1.80;99.90
20045;DHT22;10183;47.808;9.476;2024-01-07T11:35:55;1.80;99.90
20045;DHT22;10183;47.808;9.476;2024-01-07T11:38:46;1.70;99.90
20045;DHT22;10183;47.808;9.476;2024-01-07T11:41:33;1.80;99.90
20045;DHT22;10183;47.808;9.476;2024-01-07T11:44:19;1.70;99.90
20045;DHT22;10183;47.808;9.476;2024-01-07T11:47:05;1.80;99.90
20045;DHT22;10183;47.808;9.476;2024-01-07T11:49:51;1.90;99.90
20045;DHT22;10183;47.808;9.476;2024-01-07T11:52:37;1.90;99.90
20045;DHT22;10183;47.808;9.476;2024-01-07T11:55:25;1.80;99.90
20045;DHT22;10183;47.808;9.476;2024-01-07T11:58:12;1.70;99.90
20045;DHT22;10183;47.808;9.476;2024-01-07T12:00:58;1.70;99.90
20045;DHT22;10183;47.808;9.476;2024-01-07T12:03:44;1.80;99.90
20045;DHT22;10183;47.808;9.476;2024-01-07T12:06:31;1.70;99.90
20045;DHT22;10183;47.808;9.476;2024-01-07T12:09:17;1.70;99.90
20045;DHT22;10183;47.808;9.476;2024-01-07T12:12:03;1.90;99.90
20045;DHT22;10183;47.808;9.476;2024-01-07T12:14:50;1.80;99.90
20045;DHT22;10183;47.808;9.476;2024-01-07T12:17:40;1.80;99.90
20045;DHT22;10183;47.808;9.476;2024-01-07T12:20:27;1.80;99.90
20045;DHT22;10183;47.808;9.476;2024-01-07T12:23:13;1.80;99.90
20045;DHT22;10183;47.808;9.476;2024-01-07T12:26:07;1.90;99.90
20045;DHT22;10183;47.808;9.476;2024-01-07T12:28:55;1.90;99.90
20045;DHT22;10183;47.808;9.476;2024-01-07T12:31:41;1.90;99.90
20045;DHT22;10183;47.808;9.476;2024-01-07T12:34:27;1.80;99.90
20045;DHT22;10183;47.808;9.476;2024-01-07T12:37:14;1.70;99.90
20045;DHT22;10183;47.808;9.476;2024-01-07T12:40:00;1.70;99.90
20045;DHT22;10183;47.808;9.476;2024-01-07T12:42:46;1.60;99.90
20045;DHT22;10183;47.808;9.476;2024-01-07T12:45:33;1.60;99.90
20045;DHT22;10183;47.808;9.476;2024-01-07T12:48:19;1.50;99.90
20045;DHT22;10183;47.808;9.476;2024-01-07T12:51:06;1.50;99.90
20045;DHT22;10183;47.808;9.476;2024-01-07T12:53:52;1.50;99.90
20045;DHT22;10183;47.808;9.476;2024-01-07T12:56:38;1.50;99.90
20045;DHT22;10183;47.808;9.476;2024-01-07T12:59:24;1.50;99.90
20045;DHT22;10183;47.808;9.476;2024-01-07T13:02:12;1.40;99.90
20045;DHT22;10183;47.808;9.476;2024-01-07T13:04:59;1.40;99.90
20045;DHT22;10183;47.808;9.476;2024-01-07T13:07:46;1.40;99.90
20045;DHT22;10183;47.808;9.476;2024-01-07T13:10:34;1.40;99.90
20045;DHT22;10183;47.808;9.476;2024-01-07T13:13:20;1.40;99.90
20045;DHT22;10183;47.808;9.476;2024-01-07T13:16:07;1.30;99.90
20045;DHT22;10183;47.808;9.476;2024-01-07T13:18:54;1.30;99.90
20045;DHT22;10183;47.808;9.476;2024-01-07T13:21:40;1.30;99.90
20045;DHT22;10183;47.808;9.476;2024-01-07T13:24:27;1.40;99.90
20045;DHT22;10183;47.808;9.476;2024-01-07T13:27:13;1.40;99.90
20045;DHT22;10183;47.808;9.476;2024-01-07T13:30:00;1.30;99.90
20045;DHT22;10183;47.808;9.476;2024-01-07T13:32:46;1.20;99.90
20045;DHT22;10183;47.808;9.476;2024-01-07T13:35:32;1.10;99.90
20045;DHT22;10183;47.808;9.476;2024-01-07T13:38:19;1.30;99.90
20045;DHT22;10183;47.808;9.476;2024-01-07T13:41:05;1.20;99.90
20045;DHT22;10183;47.808;9.476;2024-01-07T13:43:52;1.10;99.90
20045;DHT22;10183;47.808;9.476;2024-01-07T13:46:39;1.00;99.90
20045;DHT22;10183;47.808;9.476;2024-01-07T13:49:25;1.00;99.90
20045;DHT22;10183;47.808;9.476;2024-01-07T13:52:11;1.00;99.90
20045;DHT22;10183;47.808;9.476;2024-01-07T13:54:57;1.00;99.90
20045;DHT22;10183;47.808;9.476;2024-01-07T13:57:43;0.90;99.90
20045;DHT22;10183;47.808;9.476;2024-01-07T14:00:29;0.90;99.90
20045;DHT22;10183;47.808;9.476;2024-01-07T14:03:15;0.90;99.90
20045;DHT22;10183;47.808;9.476;2024-01-07T14:06:01;0.90;99.90
20045;DHT22;10183;47.808;9.476;2024-01-07T14:08:47;0.90;99.90
20045;DHT22;10183;47.808;9.476;2024-01-07T14:11:33;0.90;99.90
20045;DHT22;10183;47.808;9.476;2024-01-07T14:14:19;1.00;99.90
20045;DHT22;10183;47.808;9.476;2024-01-07T14:17:05;1.00;99.90
20045;DHT22;10183;47.808;9.476;2024-01-07T14:19:52;0.90;99.90
20045;DHT22;10183;47.808;9.476;2024-01-07T14:22:39;0.80;99.90
20045;DHT22;10183;47.808;9.476;2024-01-07T14:25:25;0.80;99.90
20045;DHT22;10183;47.808;9.476;2024-01-07T14:28:11;0.90;99.90
20045;DHT22;10183;47.808;9.476;2024-01-07T14:30:57;0.80;99.90
20045;DHT22;10183;47.808;9.476;2024-01-07T14:33:44;0.80;99.90
20045;DHT22;10183;47.808;9.476;2024-01-07T14:36:30;0.80;99.90
20045;DHT22;10183;47.808;9.476;2024-01-07T14:39:16;0.80;99.90
20045;DHT22;10183;47.808;9.476;2024-01-07T14:42:02;0.90;99.90
20045;DHT22;10183;47.808;9.476;2024-01-07T14:44:48;0.90;99.90
20045;DHT22;10183;47.808;9.476;2024-01-07T14:47:35;0.90;99.90
20045;DHT22;10183;47.808;9.476;2024-01-07T14:50:21;0.80;99.90
20045;DHT22;10183;47.808;9.476;2024-01-07T14:53:07;0.80;99.90
20045;DHT22;10183;47.808;9.476;2024-01-07T14:55:53;0.70;99.90
20045;DHT22;10183;47.808;9.476;2024-01-07T14:58:39;0.80;99.90
20045;DHT22;10183;47.808;9.476;2024-01-07T15:01:25;0.70;99.90
20045;DHT22;10183;47.808;9.476;2024-01-07T15:04:11;0.70;99.90
20045;DHT22;10183;47.808;9.476;2024-01-07T15:06:57;0.60;99.90
20045;DHT22;10183;47.808;9.476;2024-01-07T15:09:44;0.60;99.90
20045;DHT22;10183;47.808;9.476;2024-01-07T15:12:30;0.60;99.90
20045;DHT22;10183;47.808;9.476;2024-01-07T15:15:21;0.50;99.90
20045;DHT22;10183;47.808;9.476;2024-01-07T15:18:08;0.50;99.90
20045;DHT22;10183;47.808;9.476;2024-01-07T15:20:54;0.40;99.90
20045;DHT22;10183;47.808;9.476;2024-01-07T15:23:40;0.50;99.90
20045;DHT22;10183;47.808;9.476;2024-01-07T15:26:26;0.30;99.90
20045;DHT22;10183;47.808;9.476;2024-01-07T15:29:12;0.40;99.90
20045;DHT22;10183;47.808;9.476;2024-01-07T15:31:59;0.30;99.90
20045;DHT22;10183;47.808;9.476;2024-01-07T15:34:45;0.30;99.90
20045;DHT22;10183;47.808;9.476;2024-01-07T15:37:32;0.30;99.90
20045;DHT22;10183;47.808;9.476;2024-01-07T15:40:18;0.30;99.90
20045;DHT22;10183;47.808;9.476;2024-01-07T15:43:04;0.30;99.90
20045;DHT22;10183;47.808;9.476;2024-01-07T15:45:50;0.20;99.90
20045;DHT22;10183;47.808;9.476;2024-01-07T15:48:36;0.20;99.90
20045;DHT22;10183;47.808;9.476;2024-01-07T15:51:22;0.10;99.90
20045;DHT22;10183;47.808;9.476;2024-01-07T15:54:08;0.10;99.90
20045;DHT22;10183;47.808;9.476;2024-01-07T15:56:53;0.10;99.90
20045;DHT22;10183;47.808;9.476;2024-01-07T15:59:42;0.10;99.90
20045;DHT22;10183;47.808;9.476;2024-01-07T16:02:28;0.10;99.90
20045;DHT22;10183;47.808;9.476;2024-01-07T16:05:14;0.10;99.90
20045;DHT22;10183;47.808;9.476;2024-01-07T16:08:00;0.10;99.90
20045;DHT22;10183;47.808;9.476;2024-01-07T16:10:46;0.10;99.90
20045;DHT22;10183;47.808;9.476;2024-01-07T16:13:32;0.00;99.90
20045;DHT22;10183;47.808;9.476;2024-01-07T16:16:18;0.00;99.90
20045;DHT22;10183;47.808;9.476;2024-01-07T16:19:04;-0.10;99.90
20045;DHT22;10183;47.808;9.476;2024-01-07T16:21:50;-0.10;99.90
20045;DHT22;10183;47.808;9.476;2024-01-07T16:24:39;-0.10;99.90
20045;DHT22;10183;47.808;9.476;2024-01-07T16:27:25;-0.10;99.90
20045;DHT22;10183;47.808;9.476;2024-01-07T16:30:11;-0.10;99.90
20045;DHT22;10183;47.808;9.476;2024-01-07T16:32:58;-0.10;99.90
20045;DHT22;10183;47.808;9.476;2024-01-07T16:35:44;-0.10;99.90
20045;DHT22;10183;47.808;9.476;2024-01-07T16:38:30;-0.10;99.90
20045;DHT22;10183;47.808;9.476;2024-01-07T16:41:17;-0.10;99.90
20045;DHT22;10183;47.808;9.476;2024-01-07T16:44:03;-0.10;99.90
20045;DHT22;10183;47.808;9.476;2024-01-07T16:46:53;-0.10;99.90
20045;DHT22;10183;47.808;9.476;2024-01-07T16:49:39;-0.10;99.90
20045;DHT22;10183;47.808;9.476;2024-01-07T16:52:25;-0.10;99.90
20045;DHT22;10183;47.808;9.476;2024-01-07T16:55:11;-0.20;99.90
20045;DHT22;10183;47.808;9.476;2024-01-07T16:57:57;-0.30;99.90
20045;DHT22;10183;47.808;9.476;2024-01-07T17:00:43;-0.30;99.90
20045;DHT22;10183;47.808;9.476;2024-01-07T17:03:29;-0.30;99.90
20045;DHT22;10183;47.808;9.476;2024-01-07T17:06:15;-0.40;99.90
20045;DHT22;10183;47.808;9.476;2024-01-07T17:09:01;-0.40;99.90
20045;DHT22;10183;47.808;9.476;2024-01-07T17:11:49;-0.50;99.90
20045;DHT22;10183;47.808;9.476;2024-01-07T17:14:35;-0.30;99.90
20045;DHT22;10183;47.808;9.476;2024-01-07T17:17:22;-0.30;99.90
20045;DHT22;10183;47.808;9.476;2024-01-07T17:20:11;-0.40;99.90
20045;DHT22;10183;47.808;9.476;2024-01-07T17:22:58;-0.40;99.90
20045;DHT22;10183;47.808;9.476;2024-01-07T17:25:44;-0.50;99.90
20045;DHT22;10183;47.808;9.476;2024-01-07T17:28:30;-0.60;99.90
20045;DHT22;10183;47.808;9.476;2024-01-07T17:31:16;-0.60;99.90
20045;DHT22;10183;47.808;9.476;2024-01-07T17:34:02;-0.60;99.90
20045;DHT22;10183;47.808;9.476;2024-01-07T17:36:48;-0.60;99.90
20045;DHT22;10183;47.808;9.476;2024-01-07T17:39:35;-0.60;99.90
20045;DHT22;10183;47.808;9.476;2024-01-07T17:42:21;-0.60;99.90
20045;DHT22;10183;47.808;9.476;2024-01-07T17:45:08;-0.70;99.90
20045;DHT22;10183;47.808;9.476;2024-01-07T17:47:55;-0.70;99.90
20045;DHT22;10183;47.808;9.476;2024-01-07T17:50:41;-0.70;99.90
20045;DHT22;10183;47.808;9.476;2024-01-07T17:53:30;-0.70;99.90
20045;DHT22;10183;47.808;9.476;2024-01-07T17:56:20;-0.70;99.90
20045;DHT22;10183;47.808;9.476;2024-01-07T17:59:06;-0.70;99.90
20045;DHT22;10183;47.808;9.476;2024-01-07T18:01:53;-0.70;99.90